sensor_id;sensor_type;location;lat;lon;timestamp;temperature;humidity
22442;DHT22;11388;54.456;9.752;2023-05-15T00:01:00;13.70;99.90
22442;DHT22;11388;54.456;9.752;2023-05-15T00:03:26;13.60;99.90
22442;DHT22;11388;54.456;9.752;2023-05-15T00:05:52;13.60;99.90
22442;DHT22;11388;54.456;9.752;2023-05-15T00:08:18;13.60;99.90
22442;DHT22;11388;54.456;9.752;2023-05-15T00:10:43;13.50;99.90
22442;DHT22;11388;54.456;9.752;2023-05-15T00:13:09;13.60;99.90
22442;DHT22;11388;54.456;9.752;2023-05-15T00:15:35;13.50;99.90
22442;DHT22;11388;54.456;9.752;2023-05-15T00:18:00;13.60;99.90
22442;DHT22;11388;54.456;9.752;2023-05-15T00:20:26;13.50;99.90
22442;DHT22;11388;54.456;9.752;2023-05-15T00:22:52;13.50;99.90
22442;DHT22;11388;54.456;9.752;2023-05-15T00:25:17;13.50;99.90
22442;DHT22;11388;54.456;9.752;2023-05-15T00:27:44;13.40;99.90
22442;DHT22;11388;54.456;9.752;2023-05-15T00:30:10;13.30;99.90
22442;DHT22;11388;54.456;9.752;2023-05-15T00:32:36;13.30;99.90
22442;DHT22;11388;54.456;9.752;2023-05-15T00:35:02;13.30;99.90
22442;DHT22;11388;54.456;9.752;2023-05-15T00:37:31;13.30;99.90
22442;DHT22;11388;54.456;9.752;2023-05-15T00:39:56;13.20;99.90
22442;DHT22;11388;54.456;9.752;2023-05-15T00:42:22;13.20;99.90
22442;DHT22;11388;54.456;9.752;2023-05-15T00:44:50;13.20;99.90
22442;DHT22;11388;54.456;9.752;2023-05-15T00:47:19;13.20;99.90
22442;DHT22;11388;54.456;9.752;2023-05-15T00:49:46;13.30;99.90
22442;DHT22;11388;54.456;9.752;2023-05-15T00:52:15;13.20;99.90
22442;DHT22;11388;54.456;9.752;2023-05-15T00:54:40;13.10;99.90
22442;DHT22;11388;54.456;9.752;2023-05-15T00:57:10;13.00;99.90
22442;DHT22;11388;54.456;9.752;2023-05-15T00:59:38;13.10;99.90
22442;DHT22;11388;54.456;9.752;2023-05-15T01:02:04;13.10;99.90
22442;DHT22;11388;54.456;9.752;2023-05-15T01:04:33;13.10;99.90
22442;DHT22;11388;54.456;9.752;2023-05-15T01:06:59;13.10;99.90
22442;DHT22;11388;54.456;9.752;2023-05-15T01:09:25;13.10;99.90
22442;DHT22;11388;54.456;9.752;2023-05-15T01:11:53;13.10;99.90
22442;DHT22;11388;54.456;9.752;2023-05-15T01:14:19;13.00;99.90
22442;DHT22;11388;54.456;9.752;2023-05-15T01:16:45;13.00;99.90
22442;DHT22;11388;54.456;9.752;2023-05-15T01:19:11;13.00;99.90
22442;DHT22;11388;54.456;9.752;2023-05-15T01:32:40;12.80;99.90
22442;DHT22;11388;54.456;9.752;2023-05-15T01:35:23;12.80;99.90
22442;DHT22;11388;54.456;9.752;2023-05-15T01:40:54;12.70;99.90
22442;DHT22;11388;54.456;9.752;2023-05-15T01:43:23;12.70;99.90
22442;DHT22;11388;54.456;9.752;2023-05-15T01:45:51;12.70;99.90
22442;DHT22;11388;54.456;9.752;2023-05-15T01:48:18;12.60;99.90
22442;DHT22;11388;54.456;9.752;2023-05-15T01:50:46;12.40;99.90
22442;DHT22;11388;54.456;9.752;2023-05-15T01:53:14;12.40;99.90
22442;DHT22;11388;54.456;9.752;2023-05-15T01:55:41;12.40;99.90
22442;DHT22;11388;54.456;9.752;2023-05-15T01:58:10;12.40;99.90
22442;DHT22;11388;54.456;9.752;2023-05-15T02:00:37;12.30;99.90
22442;DHT22;11388;54.456;9.752;2023-05-15T02:03:04;12.30;99.90
22442;DHT22;11388;54.456;9.752;2023-05-15T02:05:31;12.30;99.90
22442;DHT22;11388;54.456;9.752;2023-05-15T02:07:58;12.30;99.90
22442;DHT22;11388;54.456;9.752;2023-05-15T02:10:25;12.30;99.90
22442;DHT22;11388;54.456;9.752;2023-05-15T02:12:51;12.30;99.90
22442;DHT22;11388;54.456;9.752;2023-05-15T02:15:18;12.20;99.90
22442;DHT22;11388;54.456;9.752;2023-05-15T02:17:45;12.20;99.90
22442;DHT22;11388;54.456;9.752;2023-05-15T02:20:11;12.10;99.90
22442;DHT22;11388;54.456;9.752;2023-05-15T02:22:37;12.10;99.90
22442;DHT22;11388;54.456;9.752;2023-05-15T02:25:03;12.10;99.90
22442;DHT22;11388;54.456;9.752;2023-05-15T02:27:47;12.10;99.90
22442;DHT22;11388;54.456;9.752;2023-05-15T02:30:22;12.00;99.90
22442;DHT22;11388;54.456;9.752;2023-05-15T02:35:55;12.00;99.90
22442;DHT22;11388;54.456;9.752;2023-05-15T02:38:28;12.00;99.90
22442;DHT22;11388;54.456;9.752;2023-05-15T02:40:55;11.80;99.90
22442;DHT22;11388;54.456;9.752;2023-05-15T02:43:21;11.80;99.90
22442;DHT22;11388;54.456;9.752;2023-05-15T02:45:47;11.80;99.90
22442;DHT22;11388;54.456;9.752;2023-05-15T02:48:14;11.90;99.90
22442;DHT22;11388;54.456;9.752;2023-05-15T02:50:42;11.80;99.90
22442;DHT22;11388;54.456;9.752;2023-05-15T02:53:08;11.90;99.90
22442;DHT22;11388;54.456;9.752;2023-05-15T02:55:35;11.90;99.90
22442;DHT22;11388;54.456;9.752;2023-05-15T02:58:01;11.80;99.90
22442;DHT22;11388;54.456;9.752;2023-05-15T03:00:27;11.70;99.90
22442;DHT22;11388;54.456;9.752;2023-05-15T03:02:53;11.70;99.90
22442;DHT22;11388;54.456;9.752;2023-05-15T03:05:19;11.70;99.90
22442;DHT22;11388;54.456;9.752;2023-05-15T03:07:45;11.60;99.90
22442;DHT22;11388;54.456;9.752;2023-05-15T03:10:11;11.60;99.90
22442;DHT22;11388;54.456;9.752;2023-05-15T03:12:37;11.60;99.90
22442;DHT22;11388;54.456;9.752;2023-05-15T03:15:04;11.60;99.90
22442;DHT22;11388;54.456;9.752;2023-05-15T03:17:30;11.60;99.90
22442;DHT22;11388;54.456;9.752;2023-05-15T03:19:56;11.60;99.90
22442;DHT22;11388;54.456;9.752;2023-05-15T03:22:22;11.60;99.90
22442;DHT22;11388;54.456;9.752;2023-05-15T03:24:48;11.50;99.90
22442;DHT22;11388;54.456;9.752;2023-05-15T03:27:33;11.50;99.90
22442;DHT22;11388;54.456;9.752;2023-05-15T03:29:59;11.50;99.90
22442;DHT22;11388;54.456;9.752;2023-05-15T03:32:24;11.50;99.90
22442;DHT22;11388;54.456;9.752;2023-05-15T03:34:50;11.50;99.90
22442;DHT22;11388;54.456;9.752;2023-05-15T03:37:16;11.50;99.90
22442;DHT22;11388;54.456;9.752;2023-05-15T03:39:41;11.50;99.90
22442;DHT22;11388;54.456;9.752;2023-05-15T03:42:07;11.50;99.90
22442;DHT22;11388;54.456;9.752;2023-05-15T03:44:33;11.50;99.90
22442;DHT22;11388;54.456;9.752;2023-05-15T03:46:59;11.50;99.90
22442;DHT22;11388;54.456;9.752;2023-05-15T03:49:25;11.50;99.90
22442;DHT22;11388;54.456;9.752;2023-05-15T03:51:50;11.40;99.90
22442;DHT22;11388;54.456;9.752;2023-05-15T03:54:16;11.50;99.90
22442;DHT22;11388;54.456;9.752;2023-05-15T03:56:42;11.50;99.90
22442;DHT22;11388;54.456;9.752;2023-05-15T03:59:07;11.50;99.90
22442;DHT22;11388;54.456;9.752;2023-05-15T04:01:33;11.40;99.90
22442;DHT22;11388;54.456;9.752;2023-05-15T04:03:59;11.40;99.90
22442;DHT22;11388;54.456;9.752;2023-05-15T04:06:24;11.40;99.90
22442;DHT22;11388;54.456;9.752;2023-05-15T04:08:50;11.40;99.90
22442;DHT22;11388;54.456;9.752;2023-05-15T04:11:16;11.50;99.90
22442;DHT22;11388;54.456;9.752;2023-05-15T04:13:41;11.50;99.90
22442;DHT22;11388;54.456;9.752;2023-05-15T04:16:07;11.50;99.90
22442;DHT22;11388;54.456;9.752;2023-05-15T04:18:33;11.50;99.90
22442;DHT22;11388;54.456;9.752;2023-05-15T04:20:58;11.50;99.90
22442;DHT22;11388;54.456;9.752;2023-05-15T04:23:24;11.50;99.90
22442;DHT22;11388;54.456;9.752;2023-05-15T04:25:50;11.50;99.90
22442;DHT22;11388;54.456;9.752;2023-05-15T04:28:18;11.50;99.90
22442;DHT22;11388;54.456;9.752;2023-05-15T04:30:46;11.60;99.90
22442;DHT22;11388;54.456;9.752;2023-05-15T04:33:11;11.60;99.90
22442;DHT22;11388;54.456;9.752;2023-05-15T04:35:37;11.70;99.90
22442;DHT22;11388;54.456;9.752;2023-05-15T04:38:03;11.70;99.90
22442;DHT22;11388;54.456;9.752;2023-05-15T04:40:29;11.80;99.90
22442;DHT22;11388;54.456;9.752;2023-05-15T04:42:55;11.80;99.90
22442;DHT22;11388;54.456;9.752;2023-05-15T04:45:20;11.90;99.90
22442;DHT22;11388;54.456;9.752;2023-05-15T04:47:46;11.80;99.90
22442;DHT22;11388;54.456;9.752;2023-05-15T04:50:12;11.90;99.90
22442;DHT22;11388;54.456;9.752;2023-05-15T04:52:37;12.00;99.90
22442;DHT22;11388;54.456;9.752;2023-05-15T04:55:03;12.10;99.90
22442;DHT22;11388;54.456;9.752;2023-05-15T04:57:29;12.10;99.90
22442;DHT22;11388;54.456;9.752;2023-05-15T04:59:55;12.10;99.90
22442;DHT22;11388;54.456;9.752;2023-05-15T05:02:22;12.10;99.90
22442;DHT22;11388;54.456;9.752;2023-05-15T05:04:49;12.10;99.90
22442;DHT22;11388;54.456;9.752;2023-05-15T05:07:14;12.20;99.90
22442;DHT22;11388;54.456;9.752;2023-05-15T05:09:40;12.30;99.90
22442;DHT22;11388;54.456;9.752;2023-05-15T05:12:09;12.40;99.90
22442;DHT22;11388;54.456;9.752;2023-05-15T05:14:35;12.50;99.90
22442;DHT22;11388;54.456;9.752;2023-05-15T05:17:01;12.60;99.90
22442;DHT22;11388;54.456;9.752;2023-05-15T05:19:27;12.70;99.90
22442;DHT22;11388;54.456;9.752;2023-05-15T05:21:53;12.70;99.90
22442;DHT22;11388;54.456;9.752;2023-05-15T05:24:19;12.80;99.90
22442;DHT22;11388;54.456;9.752;2023-05-15T05:26:45;12.90;99.90
22442;DHT22;11388;54.456;9.752;2023-05-15T05:29:10;13.00;99.90
22442;DHT22;11388;54.456;9.752;2023-05-15T05:31:36;13.10;99.90
22442;DHT22;11388;54.456;9.752;2023-05-15T05:34:02;13.20;99.90
22442;DHT22;11388;54.456;9.752;2023-05-15T05:36:43;13.30;99.90
22442;DHT22;11388;54.456;9.752;2023-05-15T05:39:09;13.40;99.90
22442;DHT22;11388;54.456;9.752;2023-05-15T05:41:35;13.50;99.90
22442;DHT22;11388;54.456;9.752;2023-05-15T05:44:01;13.60;99.90
22442;DHT22;11388;54.456;9.752;2023-05-15T05:46:26;13.70;99.90
22442;DHT22;11388;54.456;9.752;2023-05-15T05:48:52;13.80;99.90
22442;DHT22;11388;54.456;9.752;2023-05-15T05:51:18;13.80;99.90
22442;DHT22;11388;54.456;9.752;2023-05-15T05:53:43;14.00;99.90
22442;DHT22;11388;54.456;9.752;2023-05-15T05:56:10;14.00;99.90
22442;DHT22;11388;54.456;9.752;2023-05-15T05:58:35;14.20;99.90
22442;DHT22;11388;54.456;9.752;2023-05-15T06:01:01;14.30;99.90
22442;DHT22;11388;54.456;9.752;2023-05-15T06:03:27;14.30;99.90
22442;DHT22;11388;54.456;9.752;2023-05-15T06:05:53;14.40;99.90
22442;DHT22;11388;54.456;9.752;2023-05-15T06:08:19;14.50;99.90
22442;DHT22;11388;54.456;9.752;2023-05-15T06:10:45;14.60;99.90
22442;DHT22;11388;54.456;9.752;2023-05-15T06:13:11;14.70;99.90
22442;DHT22;11388;54.456;9.752;2023-05-15T06:15:39;14.80;99.90
22442;DHT22;11388;54.456;9.752;2023-05-15T06:18:05;14.90;99.90
22442;DHT22;11388;54.456;9.752;2023-05-15T06:20:31;15.00;99.90
22442;DHT22;11388;54.456;9.752;2023-05-15T06:22:57;15.10;99.90
22442;DHT22;11388;54.456;9.752;2023-05-15T06:25:22;15.30;99.90
22442;DHT22;11388;54.456;9.752;2023-05-15T06:27:48;15.30;99.90
22442;DHT22;11388;54.456;9.752;2023-05-15T06:30:14;15.40;99.90
22442;DHT22;11388;54.456;9.752;2023-05-15T06:45:55;15.90;99.90
22442;DHT22;11388;54.456;9.752;2023-05-15T06:48:21;15.90;99.90
22442;DHT22;11388;54.456;9.752;2023-05-15T06:50:46;16.00;99.90
22442;DHT22;11388;54.456;9.752;2023-05-15T06:53:18;16.10;99.90
22442;DHT22;11388;54.456;9.752;2023-05-15T06:55:46;16.20;99.90
22442;DHT22;11388;54.456;9.752;2023-05-15T06:58:12;16.20;99.90
22442;DHT22;11388;54.456;9.752;2023-05-15T07:00:37;16.30;99.90
22442;DHT22;11388;54.456;9.752;2023-05-15T07:03:03;16.40;99.90
22442;DHT22;11388;54.456;9.752;2023-05-15T07:05:31;16.50;99.90
22442;DHT22;11388;54.456;9.752;2023-05-15T07:07:57;16.60;99.90
22442;DHT22;11388;54.456;9.752;2023-05-15T07:10:23;16.70;99.90
22442;DHT22;11388;54.456;9.752;2023-05-15T07:44:03;17.80;99.90
22442;DHT22;11388;54.456;9.752;2023-05-15T07:46:28;17.90;99.90
22442;DHT22;11388;54.456;9.752;2023-05-15T07:48:54;18.00;99.90
22442;DHT22;11388;54.456;9.752;2023-05-15T07:51:20;18.00;99.90
22442;DHT22;11388;54.456;9.752;2023-05-15T07:53:45;18.10;99.90
22442;DHT22;11388;54.456;9.752;2023-05-15T07:59:02;18.40;99.90
22442;DHT22;11388;54.456;9.752;2023-05-15T08:01:28;18.50;99.90
22442;DHT22;11388;54.456;9.752;2023-05-15T08:03:53;18.60;99.90
22442;DHT22;11388;54.456;9.752;2023-05-15T08:06:19;18.60;99.90
22442;DHT22;11388;54.456;9.752;2023-05-15T08:08:45;18.70;99.90
22442;DHT22;11388;54.456;9.752;2023-05-15T08:11:11;18.80;99.90
22442;DHT22;11388;54.456;9.752;2023-05-15T08:13:36;18.80;99.90
22442;DHT22;11388;54.456;9.752;2023-05-15T08:16:02;18.90;99.90
22442;DHT22;11388;54.456;9.752;2023-05-15T08:18:28;18.90;99.90
22442;DHT22;11388;54.456;9.752;2023-05-15T08:20:53;19.00;99.90
22442;DHT22;11388;54.456;9.752;2023-05-15T08:23:19;19.10;99.90
22442;DHT22;11388;54.456;9.752;2023-05-15T08:25:45;19.10;99.90
22442;DHT22;11388;54.456;9.752;2023-05-15T08:28:10;19.20;99.90
22442;DHT22;11388;54.456;9.752;2023-05-15T08:36:44;19.50;99.90
22442;DHT22;11388;54.456;9.752;2023-05-15T08:39:10;19.60;99.90
22442;DHT22;11388;54.456;9.752;2023-05-15T09:24:21;20.80;99.90
22442;DHT22;11388;54.456;9.752;2023-05-15T09:27:08;20.80;99.90
22442;DHT22;11388;54.456;9.752;2023-05-15T09:29:37;20.90;99.90
22442;DHT22;11388;54.456;9.752;2023-05-15T09:32:13;20.90;99.90
22442;DHT22;11388;54.456;9.752;2023-05-15T09:34:41;21.00;99.90
22442;DHT22;11388;54.456;9.752;2023-05-15T09:37:10;21.00;99.40
22442;DHT22;11388;54.456;9.752;2023-05-15T09:40:13;21.00;99.80
22442;DHT22;11388;54.456;9.752;2023-05-15T09:42:59;21.10;99.90
22442;DHT22;11388;54.456;9.752;2023-05-15T09:49:35;21.30;99.90
22442;DHT22;11388;54.456;9.752;2023-05-15T09:52:12;21.40;99.90
22442;DHT22;11388;54.456;9.752;2023-05-15T10:04:39;21.70;99.00
22442;DHT22;11388;54.456;9.752;2023-05-15T10:07:50;21.80;98.40
22442;DHT22;11388;54.456;9.752;2023-05-15T10:14:00;21.90;98.60
22442;DHT22;11388;54.456;9.752;2023-05-15T10:23:21;22.20;96.50
22442;DHT22;11388;54.456;9.752;2023-05-15T10:32:23;22.30;97.30
22442;DHT22;11388;54.456;9.752;2023-05-15T10:38:18;22.50;98.40
22442;DHT22;11388;54.456;9.752;2023-05-15T10:40:52;22.60;99.90
22442;DHT22;11388;54.456;9.752;2023-05-15T10:43:19;22.60;99.90
22442;DHT22;11388;54.456;9.752;2023-05-15T10:45:46;22.60;99.90
22442;DHT22;11388;54.456;9.752;2023-05-15T10:48:21;22.80;99.90
22442;DHT22;11388;54.456;9.752;2023-05-15T10:50:52;22.90;99.90
22442;DHT22;11388;54.456;9.752;2023-05-15T10:53:25;22.90;99.90
22442;DHT22;11388;54.456;9.752;2023-05-15T10:55:56;23.00;99.50
22442;DHT22;11388;54.456;9.752;2023-05-15T10:58:27;23.10;98.60
22442;DHT22;11388;54.456;9.752;2023-05-15T11:01:31;23.10;99.60
22442;DHT22;11388;54.456;9.752;2023-05-15T11:04:19;23.30;99.90
22442;DHT22;11388;54.456;9.752;2023-05-15T11:21:59;23.90;98.60
22442;DHT22;11388;54.456;9.752;2023-05-15T11:24:29;24.00;97.00
22442;DHT22;11388;54.456;9.752;2023-05-15T11:27:03;24.00;96.00
22442;DHT22;11388;54.456;9.752;2023-05-15T11:29:29;24.10;95.30
22442;DHT22;11388;54.456;9.752;2023-05-15T11:31:56;24.10;94.70
22442;DHT22;11388;54.456;9.752;2023-05-15T11:37:16;24.30;93.90
22442;DHT22;11388;54.456;9.752;2023-05-15T11:39:43;24.40;93.20
22442;DHT22;11388;54.456;9.752;2023-05-15T11:42:12;24.50;92.20
22442;DHT22;11388;54.456;9.752;2023-05-15T11:44:38;24.60;92.60
22442;DHT22;11388;54.456;9.752;2023-05-15T11:47:09;24.70;90.70
22442;DHT22;11388;54.456;9.752;2023-05-15T11:49:37;24.70;88.20
22442;DHT22;11388;54.456;9.752;2023-05-15T11:52:03;24.80;90.40
22442;DHT22;11388;54.456;9.752;2023-05-15T11:54:28;24.90;90.40
22442;DHT22;11388;54.456;9.752;2023-05-15T11:56:56;25.10;90.70
22442;DHT22;11388;54.456;9.752;2023-05-15T11:59:25;25.20;90.20
22442;DHT22;11388;54.456;9.752;2023-05-15T12:01:51;25.30;88.10
22442;DHT22;11388;54.456;9.752;2023-05-15T12:04:17;25.40;84.40
22442;DHT22;11388;54.456;9.752;2023-05-15T12:06:44;25.50;87.10
22442;DHT22;11388;54.456;9.752;2023-05-15T12:09:18;25.60;81.70
22442;DHT22;11388;54.456;9.752;2023-05-15T12:11:51;25.70;87.20
22442;DHT22;11388;54.456;9.752;2023-05-15T12:14:17;25.90;87.90
22442;DHT22;11388;54.456;9.752;2023-05-15T12:16:42;26.10;85.40
22442;DHT22;11388;54.456;9.752;2023-05-15T12:19:08;26.30;84.50
22442;DHT22;11388;54.456;9.752;2023-05-15T12:21:36;26.60;84.10
22442;DHT22;11388;54.456;9.752;2023-05-15T12:24:10;27.00;81.30
22442;DHT22;11388;54.456;9.752;2023-05-15T12:26:37;27.70;81.60
22442;DHT22;11388;54.456;9.752;2023-05-15T12:29:04;29.70;80.00
22442;DHT22;11388;54.456;9.752;2023-05-15T12:31:30;31.80;75.80
22442;DHT22;11388;54.456;9.752;2023-05-15T12:33:59;33.60;71.90
22442;DHT22;11388;54.456;9.752;2023-05-15T12:36:26;35.20;58.70
22442;DHT22;11388;54.456;9.752;2023-05-15T12:38:54;36.60;54.10
22442;DHT22;11388;54.456;9.752;2023-05-15T12:41:20;37.80;48.80
22442;DHT22;11388;54.456;9.752;2023-05-15T12:43:46;38.60;43.20
22442;DHT22;11388;54.456;9.752;2023-05-15T12:46:20;39.40;42.00
22442;DHT22;11388;54.456;9.752;2023-05-15T12:48:46;40.00;38.90
22442;DHT22;11388;54.456;9.752;2023-05-15T12:51:15;40.60;38.90
22442;DHT22;11388;54.456;9.752;2023-05-15T12:53:41;40.50;36.40
22442;DHT22;11388;54.456;9.752;2023-05-15T12:56:08;40.30;37.20
22442;DHT22;11388;54.456;9.752;2023-05-15T13:54:25;32.10;45.20
22442;DHT22;11388;54.456;9.752;2023-05-15T13:56:50;33.80;42.40
22442;DHT22;11388;54.456;9.752;2023-05-15T13:59:16;31.80;41.60
22442;DHT22;11388;54.456;9.752;2023-05-15T14:01:45;30.00;44.70
22442;DHT22;11388;54.456;9.752;2023-05-15T14:04:11;28.40;46.90
22442;DHT22;11388;54.456;9.752;2023-05-15T14:06:39;27.20;50.20
22442;DHT22;11388;54.456;9.752;2023-05-15T14:09:05;26.40;51.80
22442;DHT22;11388;54.456;9.752;2023-05-15T14:11:35;25.70;53.50
22442;DHT22;11388;54.456;9.752;2023-05-15T14:14:03;25.30;54.20
22442;DHT22;11388;54.456;9.752;2023-05-15T14:16:34;24.70;56.00
22442;DHT22;11388;54.456;9.752;2023-05-15T14:28:09;24.20;58.40
22442;DHT22;11388;54.456;9.752;2023-05-15T14:30:45;23.70;60.10
22442;DHT22;11388;54.456;9.752;2023-05-15T14:33:23;23.80;62.00
22442;DHT22;11388;54.456;9.752;2023-05-15T14:36:01;23.40;60.60
22442;DHT22;11388;54.456;9.752;2023-05-15T14:38:36;23.50;61.50
22442;DHT22;11388;54.456;9.752;2023-05-15T14:41:19;23.50;61.00
22442;DHT22;11388;54.456;9.752;2023-05-15T14:50:30;22.90;63.20
22442;DHT22;11388;54.456;9.752;2023-05-15T14:52:56;22.70;65.50
22442;DHT22;11388;54.456;9.752;2023-05-15T14:55:38;22.60;67.90
22442;DHT22;11388;54.456;9.752;2023-05-15T14:58:06;22.60;66.90
22442;DHT22;11388;54.456;9.752;2023-05-15T15:00:59;22.60;66.70
22442;DHT22;11388;54.456;9.752;2023-05-15T15:03:39;22.30;68.40
22442;DHT22;11388;54.456;9.752;2023-05-15T15:06:07;21.90;67.60
22442;DHT22;11388;54.456;9.752;2023-05-15T15:08:33;21.60;68.10
22442;DHT22;11388;54.456;9.752;2023-05-15T15:11:05;21.60;69.70
22442;DHT22;11388;54.456;9.752;2023-05-15T15:13:33;21.60;70.20
22442;DHT22;11388;54.456;9.752;2023-05-15T15:16:04;21.60;71.10
22442;DHT22;11388;54.456;9.752;2023-05-15T15:18:33;21.10;70.60
22442;DHT22;11388;54.456;9.752;2023-05-15T15:21:29;21.10;72.40
22442;DHT22;11388;54.456;9.752;2023-05-15T15:23:56;21.10;72.90
22442;DHT22;11388;54.456;9.752;2023-05-15T15:26:29;20.90;74.00
22442;DHT22;11388;54.456;9.752;2023-05-15T15:28:54;21.00;74.60
22442;DHT22;11388;54.456;9.752;2023-05-15T15:31:34;21.10;75.50
22442;DHT22;11388;54.456;9.752;2023-05-15T15:34:02;21.20;75.10
22442;DHT22;11388;54.456;9.752;2023-05-15T15:36:28;21.50;75.20
22442;DHT22;11388;54.456;9.752;2023-05-15T15:38:53;21.70;75.30
22442;DHT22;11388;54.456;9.752;2023-05-15T15:41:19;21.70;74.30
22442;DHT22;11388;54.456;9.752;2023-05-15T15:43:45;21.90;74.80
22442;DHT22;11388;54.456;9.752;2023-05-15T15:46:11;21.80;74.60
22442;DHT22;11388;54.456;9.752;2023-05-15T15:48:37;21.80;75.30
22442;DHT22;11388;54.456;9.752;2023-05-15T15:51:04;22.00;75.60
22442;DHT22;11388;54.456;9.752;2023-05-15T15:53:29;21.90;77.20
22442;DHT22;11388;54.456;9.752;2023-05-15T16:02:33;22.00;78.60
22442;DHT22;11388;54.456;9.752;2023-05-15T16:04:58;22.10;77.40
22442;DHT22;11388;54.456;9.752;2023-05-15T16:07:24;22.00;78.00
22442;DHT22;11388;54.456;9.752;2023-05-15T16:09:50;21.60;77.60
22442;DHT22;11388;54.456;9.752;2023-05-15T16:12:16;21.50;79.30
22442;DHT22;11388;54.456;9.752;2023-05-15T16:14:44;21.40;80.50
22442;DHT22;11388;54.456;9.752;2023-05-15T16:17:10;21.20;80.00
22442;DHT22;11388;54.456;9.752;2023-05-15T16:19:36;20.80;82.70
22442;DHT22;11388;54.456;9.752;2023-05-15T16:22:01;20.60;85.10
22442;DHT22;11388;54.456;9.752;2023-05-15T16:24:27;20.50;88.20
22442;DHT22;11388;54.456;9.752;2023-05-15T16:26:53;20.20;92.20
22442;DHT22;11388;54.456;9.752;2023-05-15T16:29:19;20.10;97.20
22442;DHT22;11388;54.456;9.752;2023-05-15T16:31:45;20.10;99.90
22442;DHT22;11388;54.456;9.752;2023-05-15T16:40:59;20.10;99.90
22442;DHT22;11388;54.456;9.752;2023-05-15T16:43:25;20.00;99.90
22442;DHT22;11388;54.456;9.752;2023-05-15T16:45:51;19.70;99.90
22442;DHT22;11388;54.456;9.752;2023-05-15T16:48:17;19.60;99.90
22442;DHT22;11388;54.456;9.752;2023-05-15T16:50:42;19.60;99.90
22442;DHT22;11388;54.456;9.752;2023-05-15T16:53:08;19.60;99.90
22442;DHT22;11388;54.456;9.752;2023-05-15T16:55:34;19.70;99.90
22442;DHT22;11388;54.456;9.752;2023-05-15T16:58:00;19.60;99.90
22442;DHT22;11388;54.456;9.752;2023-05-15T17:00:25;19.60;99.90
22442;DHT22;11388;54.456;9.752;2023-05-15T17:02:51;19.50;99.90
22442;DHT22;11388;54.456;9.752;2023-05-15T17:05:17;19.50;99.90
22442;DHT22;11388;54.456;9.752;2023-05-15T17:07:43;19.20;99.90
22442;DHT22;11388;54.456;9.752;2023-05-15T17:10:10;19.20;99.90
22442;DHT22;11388;54.456;9.752;2023-05-15T17:12:37;19.30;99.90
22442;DHT22;11388;54.456;9.752;2023-05-15T17:15:03;19.30;99.90
22442;DHT22;11388;54.456;9.752;2023-05-15T17:17:29;19.10;99.90
22442;DHT22;11388;54.456;9.752;2023-05-15T17:19:55;19.10;99.90
22442;DHT22;11388;54.456;9.752;2023-05-15T17:22:22;19.10;99.90
22442;DHT22;11388;54.456;9.752;2023-05-15T17:24:49;19.00;99.90
22442;DHT22;11388;54.456;9.752;2023-05-15T17:27:15;18.90;99.90
22442;DHT22;11388;54.456;9.752;2023-05-15T17:29:42;18.90;99.90
22442;DHT22;11388;54.456;9.752;2023-05-15T17:32:08;18.80;99.90
22442;DHT22;11388;54.456;9.752;2023-05-15T17:34:34;18.80;99.90
22442;DHT22;11388;54.456;9.752;2023-05-15T17:37:00;18.70;99.90
22442;DHT22;11388;54.456;9.752;2023-05-15T17:39:26;18.70;99.90
22442;DHT22;11388;54.456;9.752;2023-05-15T17:41:52;18.70;99.90
22442;DHT22;11388;54.456;9.752;2023-05-15T17:44:18;18.50;99.90
22442;DHT22;11388;54.456;9.752;2023-05-15T17:46:43;18.50;99.90
22442;DHT22;11388;54.456;9.752;2023-05-15T17:49:09;18.40;99.90
22442;DHT22;11388;54.456;9.752;2023-05-15T17:51:36;18.20;99.90
22442;DHT22;11388;54.456;9.752;2023-05-15T17:54:02;18.00;99.90
22442;DHT22;11388;54.456;9.752;2023-05-15T17:56:28;18.00;99.90
22442;DHT22;11388;54.456;9.752;2023-05-15T17:58:53;17.90;99.90
22442;DHT22;11388;54.456;9.752;2023-05-15T18:01:19;17.80;99.90
22442;DHT22;11388;54.456;9.752;2023-05-15T18:03:46;17.70;99.90
22442;DHT22;11388;54.456;9.752;2023-05-15T18:06:12;17.60;99.90
22442;DHT22;11388;54.456;9.752;2023-05-15T18:08:41;17.40;99.90
22442;DHT22;11388;54.456;9.752;2023-05-15T18:11:09;17.40;99.90
22442;DHT22;11388;54.456;9.752;2023-05-15T18:13:35;17.30;99.90
22442;DHT22;11388;54.456;9.752;2023-05-15T18:16:00;17.30;99.90
22442;DHT22;11388;54.456;9.752;2023-05-15T18:18:26;17.40;99.90
22442;DHT22;11388;54.456;9.752;2023-05-15T18:20:52;17.40;99.90
22442;DHT22;11388;54.456;9.752;2023-05-15T18:23:18;17.40;99.90
22442;DHT22;11388;54.456;9.752;2023-05-15T18:25:46;17.30;99.90
22442;DHT22;11388;54.456;9.752;2023-05-15T18:28:13;17.20;99.90
22442;DHT22;11388;54.456;9.752;2023-05-15T18:30:40;17.10;99.90
22442;DHT22;11388;54.456;9.752;2023-05-15T18:33:05;17.10;99.90
22442;DHT22;11388;54.456;9.752;2023-05-15T18:35:31;17.10;99.90
22442;DHT22;11388;54.456;9.752;2023-05-15T18:37:57;16.90;99.90
22442;DHT22;11388;54.456;9.752;2023-05-15T18:40:23;16.90;99.90
22442;DHT22;11388;54.456;9.752;2023-05-15T18:42:52;16.70;99.90
22442;DHT22;11388;54.456;9.752;2023-05-15T18:45:21;16.50;99.90
22442;DHT22;11388;54.456;9.752;2023-05-15T18:47:47;16.50;99.90
22442;DHT22;11388;54.456;9.752;2023-05-15T18:50:12;16.50;99.90
22442;DHT22;11388;54.456;9.752;2023-05-15T18:52:43;16.50;99.90
22442;DHT22;11388;54.456;9.752;2023-05-15T18:55:10;16.40;99.90
22442;DHT22;11388;54.456;9.752;2023-05-15T18:57:36;16.30;99.90
22442;DHT22;11388;54.456;9.752;2023-05-15T19:00:02;16.40;99.90
22442;DHT22;11388;54.456;9.752;2023-05-15T19:02:29;16.20;99.90
22442;DHT22;11388;54.456;9.752;2023-05-15T19:04:57;16.00;99.90
22442;DHT22;11388;54.456;9.752;2023-05-15T19:07:22;15.90;99.90
22442;DHT22;11388;54.456;9.752;2023-05-15T19:09:48;15.90;99.90
22442;DHT22;11388;54.456;9.752;2023-05-15T19:12:14;15.70;99.90
22442;DHT22;11388;54.456;9.752;2023-05-15T19:14:40;15.70;99.90
22442;DHT22;11388;54.456;9.752;2023-05-15T19:17:06;15.60;99.90
22442;DHT22;11388;54.456;9.752;2023-05-15T19:19:32;15.60;99.90
22442;DHT22;11388;54.456;9.752;2023-05-15T19:21:57;15.70;99.90
22442;DHT22;11388;54.456;9.752;2023-05-15T19:24:23;15.20;99.90
22442;DHT22;11388;54.456;9.752;2023-05-15T19:26:49;15.20;99.90
22442;DHT22;11388;54.456;9.752;2023-05-15T19:29:15;15.20;99.90
22442;DHT22;11388;54.456;9.752;2023-05-15T19:31:41;15.10;99.90
22442;DHT22;11388;54.456;9.752;2023-05-15T19:34:08;15.10;99.90
22442;DHT22;11388;54.456;9.752;2023-05-15T19:36:34;15.00;99.90
22442;DHT22;11388;54.456;9.752;2023-05-15T19:38:59;14.70;99.90
22442;DHT22;11388;54.456;9.752;2023-05-15T19:41:25;14.60;99.90
22442;DHT22;11388;54.456;9.752;2023-05-15T19:43:51;14.50;99.90